Terminal Aerodrome Forecast
Issued by NWS

Current Version | Previous Version | Graphics & Text | Print | Product List | Glossary On
Versions: 1 2 3 4 5 6 7 8 9 10 11 12 13 14 15 16 17 18 19 20 21 22 23
046
FTUS41 KPBZ 191126
TAFHLG
TAF
KHLG 191126Z 1912/2012 12003KT P6SM SCT250
      TEMPO 1912/1913 5SM BR
     FM191700 VRB03KT P6SM BKN050
     FM192300 00000KT P6SM BKN150=

USA.gov is the U.S. government's official web portal to all federal, state and local government web resources and services.